Time;durP1;ratioP1;P1;durP2;ratioP2;P2;SDS_P1;SDS_P2;PMS_P1;PMS_P2;Temp;Humidity;BMP_temperature;BMP_pressure;BME280_temperature;BME280_humidity;BME280_pressure;Samples;Min_cycle;Max_cycle;Signal;HPM_P1;HPM_P2
2021/11/18 00:00:28;;;;;;;;;;;;;;;6.68;100.00;100459.60;1716443;81;20457;-79
2021/11/18 00:02:54;;;;;;;;;;;;;;;6.68;100.00;100463.54;1752124;81;20141;-78
2021/11/18 00:05:23;;;;;;;;;;;;;;;6.61;100.00;100467.59;1755171;80;20210;-79
2021/11/18 00:07:50;;;;;;;;;;;;;;;6.65;100.00;100458.53;1753475;81;21346;-79
2021/11/18 00:10:32;;;;;;;;;;;;;;;6.69;100.00;100463.87;1748333;81;20188;-79
2021/11/18 00:12:58;;;;;;;;;;;;;;;6.59;100.00;100474.77;1746418;81;20169;-77
2021/11/18 00:15:26;;;;;;;;;;;;;;;6.58;100.00;100473.09;1742604;81;20164;-78
2021/11/18 00:17:55;;;;;;;;;;;;;;;6.56;100.00;100475.84;1756044;81;20200;-79
2021/11/18 00:20:21;;;;;;;;;;;;;;;6.65;99.63;100492.65;1746107;81;21146;-79
2021/11/18 00:22:48;;;;;;;;;;;;;;;6.71;99.41;100484.29;1749331;81;20139;-78
2021/11/18 00:25:14;;;;;;;;;;;;;;;6.71;99.31;100471.63;1746002;81;20218;-78
2021/11/18 00:27:39;;;;;;;;;;;;;;;6.85;98.73;100461.33;1747735;81;20303;-78
2021/11/18 00:30:07;;;;;;;;;;;;;;;6.75;98.52;100475.19;1748023;81;20118;-78
2021/11/18 00:32:35;;;;;;;;;;;;;;;6.71;98.58;100473.79;1744827;81;21305;-77
2021/11/18 00:35:04;;;;;;;;;;;;;;;6.71;98.62;100468.55;1747348;80;20164;-77
2021/11/18 00:37:29;;;;;;;;;;;;;;;6.73;98.87;100471.87;1747319;81;20170;-77
2021/11/18 00:39:55;;;;;;;;;;;;;;;6.86;98.43;100474.81;1754784;81;20287;-77
2021/11/18 00:42:21;;;;;;;;;;;;;;;6.69;98.90;100473.06;1746888;81;20243;-78
2021/11/18 00:44:46;;;;;;;;;;;;;;;6.75;98.75;100475.68;1753637;81;21088;-77
2021/11/18 00:47:12;;;;;;;;;;;;;;;6.67;98.72;100477.61;1756842;81;20234;-77
2021/11/18 00:49:37;;;;;;;;;;;;;;;6.62;98.90;100472.73;1746464;81;20131;-78
2021/11/18 00:52:05;;;;;;;;;;;;;;;6.72;98.58;100455.75;1726667;81;20133;-78
2021/11/18 00:54:30;;;;;;;;;;;;;;;6.73;98.23;100467.93;1752215;81;20250;-77
2021/11/18 00:56:58;;;;;;;;;;;;;;;6.68;98.57;100476.66;1748111;81;21889;-78
2021/11/18 00:59:26;;;;;;;;;;;;;;;6.79;97.97;100475.31;1749326;81;20110;-77
2021/11/18 01:01:54;;;;;;;;;;;;;;;6.88;97.60;100466.33;1756605;81;20112;-77
2021/11/18 01:04:19;;;;;;;;;;;;;;;6.86;97.30;100469.56;1753411;81;20155;-77
2021/11/18 01:06:46;;;;;;;;;;;;;;;6.93;97.20;100466.78;1751516;81;20854;-78
2021/11/18 01:09:11;;;;;;;;;;;;;;;6.92;97.07;100466.45;1743122;81;21108;-78
2021/11/18 01:11:37;;;;;;;;;;;;;;;6.82;97.29;100486.02;1751615;81;20184;-78
2021/11/18 01:14:06;;;;;;;;;;;;;;;6.75;97.43;100483.06;1744277;81;20235;-78
2021/11/18 01:16:32;;;;;;;;;;;;;;;6.68;97.87;100484.53;1731387;81;20230;-78
2021/11/18 01:18:58;;;;;;;;;;;;;;;6.77;97.85;100469.82;1729601;81;20185;-77
2021/11/18 01:21:24;;;;;;;;;;;;;;;6.67;97.72;100489.91;1727925;80;21086;-78
2021/11/18 01:23:49;;;;;;;;;;;;;;;6.67;98.08;100473.67;1741077;81;20252;-78
2021/11/18 01:26:16;;;;;;;;;;;;;;;6.60;98.49;100477.73;1744779;80;20717;-78
2021/11/18 01:28:42;;;;;;;;;;;;;;;6.63;98.40;100480.11;1731985;81;20336;-78
2021/11/18 01:31:07;;;;;;;;;;;;;;;6.55;98.68;100473.34;1729009;81;20205;-77
2021/11/18 01:33:34;;;;;;;;;;;;;;;6.62;98.45;100464.03;1734803;81;21130;-78
2021/11/18 01:35:59;;;;;;;;;;;;;;;6.57;98.79;100467.48;1750260;81;20221;-80
2021/11/18 01:38:25;;;;;;;;;;;;;;;6.59;98.63;100472.14;1747727;81;20204;-79
2021/11/18 01:40:54;;;;;;;;;;;;;;;6.66;98.30;100464.12;1733102;81;20183;-79
2021/11/18 01:43:21;;;;;;;;;;;;;;;6.58;98.40;100463.91;1731333;81;20242;-78
2021/11/18 01:45:46;;;;;;;;;;;;;;;6.67;98.13;100464.48;1743156;81;21142;-78
2021/11/18 01:48:12;;;;;;;;;;;;;;;6.68;97.97;100480.59;1745403;81;20136;-78
2021/11/18 01:50:38;;;;;;;;;;;;;;;6.70;98.13;100477.36;1730432;81;20480;-78
2021/11/18 01:53:06;;;;;;;;;;;;;;;6.64;98.52;100483.09;1721865;81;20202;-78
2021/11/18 01:55:33;;;;;;;;;;;;;;;6.63;98.80;100489.30;1703335;81;20207;-78
2021/11/18 01:57:58;;;;;;;;;;;;;;;6.62;98.92;100486.33;1734927;81;21136;-77
2021/11/18 02:00:33;;;;;;;;;;;;;;;6.57;99.02;100489.78;1736269;81;20147;-78
2021/11/18 02:02:58;;;;;;;;;;;;;;;6.56;99.40;100482.89;1737827;80;20150;-78
2021/11/18 02:05:27;;;;;;;;;;;;;;;6.53;99.63;100473.95;1735742;81;20269;-78
2021/11/18 02:07:54;;;;;;;;;;;;;;;6.49;100.00;100471.20;1730872;80;20997;-78
2021/11/18 02:10:22;;;;;;;;;;;;;;;6.45;100.00;100484.56;1729186;81;21944;-78
2021/11/18 02:12:48;;;;;;;;;;;;;;;6.47;100.00;100480.02;1736945;81;20377;-78
2021/11/18 02:15:23;;;;;;;;;;;;;;;6.38;100.00;100487.78;1752573;81;20299;-79
2021/11/18 02:17:49;;;;;;;;;;;;;;;6.35;100.00;100483.60;1746436;81;20511;-77
2021/11/18 02:20:20;;;;;;;;;;;;;;;6.35;100.00;100499.34;1761779;81;20140;-78
2021/11/18 02:22:46;;;;;;;;;;;;;;;6.31;100.00;100500.55;1752073;81;21185;-77
2021/11/18 02:25:12;;;;;;;;;;;;;;;6.38;100.00;100497.79;1748732;81;20166;-79
2021/11/18 02:27:38;;;;;;;;;;;;;;;6.29;100.00;100505.06;1749898;81;20213;-78
2021/11/18 02:30:04;;;;;;;;;;;;;;;6.32;100.00;100501.37;1750945;81;20151;-78
2021/11/18 02:32:32;;;;;;;;;;;;;;;6.27;100.00;100504.36;1747986;81;20179;-78
2021/11/18 02:35:10;;;;;;;;;;;;;;;6.32;100.00;100513.19;1759002;81;22431;-79
2021/11/18 02:37:36;;;;;;;;;;;;;;;6.30;100.00;100519.86;1746351;81;20105;-76
2021/11/18 02:40:02;;;;;;;;;;;;;;;6.20;100.00;100513.64;1751545;81;20169;-79
2021/11/18 02:42:28;;;;;;;;;;;;;;;6.18;100.00;100509.01;1752961;81;20126;-79
2021/11/18 02:44:54;;;;;;;;;;;;;;;6.21;100.00;100505.66;1756242;81;20266;-76
2021/11/18 02:47:19;;;;;;;;;;;;;;;6.08;100.00;100518.07;1752446;81;21186;-79
2021/11/18 02:49:50;;;;;;;;;;;;;;;6.15;100.00;100514.00;1755770;81;20147;-79
2021/11/18 02:52:18;;;;;;;;;;;;;;;6.13;100.00;100542.63;1751863;80;20226;-77
2021/11/18 02:54:43;;;;;;;;;;;;;;;6.18;100.00;100516.88;1758720;81;20140;-78
2021/11/18 02:57:09;;;;;;;;;;;;;;;6.15;100.00;100501.37;1747061;81;20225;-78
2021/11/18 02:59:36;;;;;;;;;;;;;;;6.23;100.00;100506.85;1779449;80;21080;-78
2021/11/18 03:02:04;;;;;;;;;;;;;;;6.16;100.00;100514.37;1747904;81;20188;-78
2021/11/18 03:04:30;;;;;;;;;;;;;;;6.06;100.00;100511.63;1754979;81;20132;-79
2021/11/18 03:06:56;;;;;;;;;;;;;;;6.18;100.00;100507.20;1738433;80;20792;-77
2021/11/18 03:09:21;;;;;;;;;;;;;;;6.11;100.00;100512.59;1765877;80;20141;-76
2021/11/18 03:11:47;;;;;;;;;;;;;;;6.25;100.00;100514.14;1767409;80;20991;-78
2021/11/18 03:14:13;;;;;;;;;;;;;;;6.20;100.00;100511.02;1760228;80;20184;-79
2021/11/18 03:16:38;;;;;;;;;;;;;;;6.19;100.00;100512.00;1752375;81;20748;-77
2021/11/18 03:19:04;;;;;;;;;;;;;;;6.18;100.00;100508.52;1755339;81;20137;-79
2021/11/18 03:21:29;;;;;;;;;;;;;;;6.23;100.00;100502.92;1752798;81;20170;-79
2021/11/18 03:23:55;;;;;;;;;;;;;;;6.14;100.00;100515.43;1753528;81;21206;-77
2021/11/18 03:26:23;;;;;;;;;;;;;;;6.16;100.00;100504.37;1748845;81;20350;-79
2021/11/18 03:28:49;;;;;;;;;;;;;;;6.10;100.00;100503.87;1750974;81;20141;-78
2021/11/18 03:31:14;;;;;;;;;;;;;;;6.20;100.00;100504.47;1750427;81;20133;-79
2021/11/18 03:33:44;;;;;;;;;;;;;;;6.20;100.00;100508.41;1755427;81;20189;-79
2021/11/18 03:36:10;;;;;;;;;;;;;;;6.20;100.00;100521.52;1752066;81;21238;-79
2021/11/18 03:38:36;;;;;;;;;;;;;;;6.28;100.00;100523.09;1752241;81;20434;-79
2021/11/18 03:41:06;;;;;;;;;;;;;;;6.26;100.00;100518.41;1750035;81;20123;-78
2021/11/18 03:43:31;;;;;;;;;;;;;;;6.26;100.00;100515.80;1746401;81;20508;-79
2021/11/18 03:45:57;;;;;;;;;;;;;;;6.25;100.00;100531.19;1748732;81;20262;-78
2021/11/18 03:48:22;;;;;;;;;;;;;;;6.33;100.00;100519.63;1755142;81;21088;-78
2021/11/18 03:50:48;;;;;;;;;;;;;;;6.33;100.00;100527.48;1754623;81;20487;-78
2021/11/18 03:53:14;;;;;;;;;;;;;;;6.27;100.00;100522.72;1755289;81;20773;-78
2021/11/18 03:55:40;;;;;;;;;;;;;;;6.33;100.00;100527.48;1752717;81;20114;-77
2021/11/18 03:58:06;;;;;;;;;;;;;;;6.34;100.00;100530.94;1754379;81;20944;-77
2021/11/18 04:00:37;;;;;;;;;;;;;;;6.34;100.00;100528.31;1749944;80;21166;-79
2021/11/18 04:03:03;;;;;;;;;;;;;;;6.41;100.00;100527.72;1755056;81;20172;-77
2021/11/18 04:05:30;;;;;;;;;;;;;;;6.28;100.00;100540.13;1753830;81;20233;-78
2021/11/18 04:07:55;;;;;;;;;;;;;;;6.36;100.00;100524.63;1753616;81;20210;-78
2021/11/18 04:10:23;;;;;;;;;;;;;;;6.35;100.00;100533.44;1752930;81;20150;-77
2021/11/18 04:12:48;;;;;;;;;;;;;;;6.29;100.00;100545.72;1755251;80;21151;-77
2021/11/18 04:15:14;;;;;;;;;;;;;;;6.35;100.00;100536.06;1748582;80;20790;-78
2021/11/18 04:17:40;;;;;;;;;;;;;;;6.34;100.00;100538.34;1769222;80;20265;-78
2021/11/18 04:20:07;;;;;;;;;;;;;;;6.32;100.00;100554.66;1746737;80;20295;-78
2021/11/18 04:22:33;;;;;;;;;;;;;;;6.38;100.00;100551.56;1749601;80;20245;-79
2021/11/18 04:24:59;;;;;;;;;;;;;;;6.36;100.00;100545.61;1763580;80;21154;-77
2021/11/18 04:27:25;;;;;;;;;;;;;;;6.38;100.00;100550.25;1724862;81;20144;-77
2021/11/18 04:29:51;;;;;;;;;;;;;;;6.38;100.00;100546.80;1731358;80;20180;-78
2021/11/18 04:32:22;;;;;;;;;;;;;;;6.54;100.00;100547.75;1724512;81;20145;-78
2021/11/18 04:34:49;;;;;;;;;;;;;;;6.43;100.00;100552.52;1734417;80;20280;-78
2021/11/18 04:37:14;;;;;;;;;;;;;;;6.46;100.00;100549.66;1730878;80;21749;-77
2021/11/18 04:39:40;;;;;;;;;;;;;;;6.47;100.00;100549.53;1729233;80;20827;-78
2021/11/18 04:42:06;;;;;;;;;;;;;;;6.42;100.00;100549.07;1725810;80;20155;-79
2021/11/18 04:44:34;;;;;;;;;;;;;;;6.47;100.00;100552.16;1731858;80;20152;-78
2021/11/18 04:47:00;;;;;;;;;;;;;;;6.51;100.00;100551.92;1731000;80;20233;-78
2021/11/18 04:49:25;;;;;;;;;;;;;;;6.47;100.00;100555.27;1727846;80;21105;-78
2021/11/18 04:51:51;;;;;;;;;;;;;;;6.50;100.00;100542.41;1733586;80;20198;-78
2021/11/18 04:54:17;;;;;;;;;;;;;;;6.45;100.00;100556.70;1741823;80;20245;-78
2021/11/18 04:56:42;;;;;;;;;;;;;;;6.50;100.00;100560.28;1721310;80;20163;-76
2021/11/18 04:59:08;;;;;;;;;;;;;;;6.47;100.00;100566.59;1768710;80;20447;-80
2021/11/18 05:01:37;;;;;;;;;;;;;;;6.51;100.00;100551.47;1732983;81;20961;-79
2021/11/18 05:04:05;;;;;;;;;;;;;;;6.46;100.00;100561.46;1737309;81;20122;-78
2021/11/18 05:06:31;;;;;;;;;;;;;;;6.46;100.00;100547.89;1734412;80;20230;-78
2021/11/18 05:08:56;;;;;;;;;;;;;;;6.55;100.00;100558.13;1732178;81;21032;-77
2021/11/18 05:11:22;;;;;;;;;;;;;;;6.68;100.00;100555.39;1737398;81;20196;-80
2021/11/18 05:13:48;;;;;;;;;;;;;;;6.80;100.00;100551.77;1739473;81;21155;-78
2021/11/18 05:16:15;;;;;;;;;;;;;;;6.75;100.00;100550.00;1734050;81;20329;-78
2021/11/18 05:18:41;;;;;;;;;;;;;;;6.70;100.00;100550.84;1750382;80;20141;-78
2021/11/18 05:21:07;;;;;;;;;;;;;;;6.75;100.00;100564.43;1777379;80;20112;-79
2021/11/18 05:23:32;;;;;;;;;;;;;;;6.71;100.00;100557.77;1750743;80;20149;-78
2021/11/18 05:25:58;;;;;;;;;;;;;;;6.73;100.00;100561.10;1786958;78;21157;-78
2021/11/18 05:28:24;;;;;;;;;;;;;;;6.77;100.00;100564.31;1761220;80;20364;-76
2021/11/18 05:30:50;;;;;;;;;;;;;;;6.74;100.00;100553.59;1767958;80;20222;-79
2021/11/18 05:33:16;;;;;;;;;;;;;;;6.78;100.00;100549.75;1732188;81;20185;-78
2021/11/18 05:35:42;;;;;;;;;;;;;;;6.77;100.00;100558.57;1767708;80;20155;-77
2021/11/18 05:38:08;;;;;;;;;;;;;;;6.85;100.00;100565.02;1789367;80;21938;-79
2021/11/18 05:40:36;;;;;;;;;;;;;;;6.86;100.00;100571.45;1746851;80;20200;-81
2021/11/18 05:43:02;;;;;;;;;;;;;;;6.79;100.00;100571.58;1745678;80;20159;-79
2021/11/18 05:45:29;;;;;;;;;;;;;;;6.85;100.00;100567.64;1752536;81;20360;-79
2021/11/18 05:47:55;;;;;;;;;;;;;;;6.82;100.00;100568.25;1755856;81;20148;-77
2021/11/18 05:50:21;;;;;;;;;;;;;;;6.73;100.00;100575.54;1745862;80;21142;-78
2021/11/18 05:52:46;;;;;;;;;;;;;;;6.77;100.00;100582.20;1768671;80;20190;-78
2021/11/18 05:55:14;;;;;;;;;;;;;;;6.76;100.00;100581.86;1770357;80;20506;-79
2021/11/18 05:57:39;;;;;;;;;;;;;;;6.80;100.00;100578.02;1775198;80;21152;-78
2021/11/18 06:00:07;;;;;;;;;;;;;;;6.63;100.00;100581.14;1781455;80;20135;-78
2021/11/18 06:02:33;;;;;;;;;;;;;;;6.70;100.00;100574.47;1757608;81;21158;-78
2021/11/18 06:04:58;;;;;;;;;;;;;;;6.63;100.00;100581.99;1754628;81;20544;-78
2021/11/18 06:07:24;;;;;;;;;;;;;;;6.52;100.00;100583.77;1758767;80;20467;-78
2021/11/18 06:09:49;;;;;;;;;;;;;;;6.52;100.00;100579.84;1772981;80;20473;-78
2021/11/18 06:12:16;;;;;;;;;;;;;;;6.56;100.00;100575.55;1753506;81;20145;-80
2021/11/18 06:14:42;;;;;;;;;;;;;;;6.57;100.00;100580.30;1751722;81;21935;-77
2021/11/18 06:17:08;;;;;;;;;;;;;;;6.51;100.00;100576.84;1750861;81;20122;-77
2021/11/18 06:19:34;;;;;;;;;;;;;;;6.54;100.00;100581.86;1749296;81;20193;-78
2021/11/18 06:22:00;;;;;;;;;;;;;;;6.51;100.00;100586.03;1751213;81;20118;-78
2021/11/18 06:24:26;;;;;;;;;;;;;;;6.52;100.00;100583.77;1752069;81;20177;-76
2021/11/18 06:26:52;;;;;;;;;;;;;;;6.58;100.00;100593.80;1750237;80;21041;-77
2021/11/18 06:29:22;;;;;;;;;;;;;;;6.57;100.00;100601.30;1756910;80;20176;-79
2021/11/18 06:31:50;;;;;;;;;;;;;;;6.54;100.00;100594.97;1785395;79;20179;-78
2021/11/18 06:34:15;;;;;;;;;;;;;;;6.51;100.00;100605.25;1766247;80;20172;-81
2021/11/18 06:36:43;;;;;;;;;;;;;;;6.60;100.00;100608.93;1762224;80;20210;-77
2021/11/18 06:39:09;;;;;;;;;;;;;;;6.66;100.00;100594.02;1775783;80;21994;-79
2021/11/18 06:41:35;;;;;;;;;;;;;;;6.65;100.00;100602.38;1755484;80;20120;-77
2021/11/18 06:44:00;;;;;;;;;;;;;;;6.68;100.00;100600.00;1788711;80;20210;-78
2021/11/18 06:46:26;;;;;;;;;;;;;;;6.61;100.00;100604.05;1751254;81;20147;-78
2021/11/18 06:48:53;;;;;;;;;;;;;;;6.62;100.00;100608.36;1786570;80;20186;-80
2021/11/18 06:51:21;;;;;;;;;;;;;;;6.62;100.00;100610.49;1750975;81;21159;-77
2021/11/18 06:53:46;;;;;;;;;;;;;;;6.77;100.00;100603.68;1758291;81;20166;-78
2021/11/18 06:56:12;;;;;;;;;;;;;;;6.75;100.00;100613.48;1752029;81;20143;-77
2021/11/18 06:58:38;;;;;;;;;;;;;;;6.88;100.00;100618.59;1788366;80;20143;-79
2021/11/18 07:01:03;;;;;;;;;;;;;;;6.79;100.00;100622.30;1788351;80;20218;-79
2021/11/18 07:03:29;;;;;;;;;;;;;;;6.81;100.00;100620.38;1752670;81;21852;-78
2021/11/18 07:05:54;;;;;;;;;;;;;;;6.74;100.00;100611.34;1747876;80;20152;-78
2021/11/18 07:08:20;;;;;;;;;;;;;;;6.77;100.00;100629.44;1786784;80;20138;-77
2021/11/18 07:10:46;;;;;;;;;;;;;;;6.81;100.00;100619.07;1755817;81;20132;-77
2021/11/18 07:13:17;;;;;;;;;;;;;;;6.79;100.00;100618.37;1773892;80;20257;-77
2021/11/18 07:15:43;;;;;;;;;;;;;;;6.78;100.00;100627.19;1755125;81;21838;-77
2021/11/18 07:18:08;;;;;;;;;;;;;;;6.70;100.00;100628.75;1774103;80;20135;-77
2021/11/18 07:20:34;;;;;;;;;;;;;;;6.74;100.00;100618.36;1756423;80;20287;-76
2021/11/18 07:23:00;;;;;;;;;;;;;;;6.73;100.00;100610.97;1764685;80;20459;-76
2021/11/18 07:25:25;;;;;;;;;;;;;;;6.71;100.00;100620.77;1762027;80;20185;-76
2021/11/18 07:27:51;;;;;;;;;;;;;;;6.65;100.00;100632.56;1763375;80;21116;-75
2021/11/18 07:30:17;;;;;;;;;;;;;;;6.66;100.00;100620.27;1759853;80;20153;-76
2021/11/18 07:32:43;;;;;;;;;;;;;;;6.73;100.00;100616.22;1762223;80;20533;-77
2021/11/18 07:35:08;;;;;;;;;;;;;;;6.73;100.00;100617.53;1763967;80;20112;-78
2021/11/18 07:37:34;;;;;;;;;;;;;;;6.77;100.00;100618.12;1757509;79;20165;-77
2021/11/18 07:40:00;;;;;;;;;;;;;;;6.78;100.00;100619.31;1762255;79;21093;-78
2021/11/18 07:42:25;;;;;;;;;;;;;;;6.77;100.00;100622.88;1757076;80;20242;-77
2021/11/18 07:44:51;;;;;;;;;;;;;;;6.75;100.00;100618.23;1767760;80;20206;-78
2021/11/18 07:47:17;;;;;;;;;;;;;;;6.72;100.00;100630.28;1765784;80;20416;-78
2021/11/18 07:49:42;;;;;;;;;;;;;;;6.77;100.00;100617.63;1769140;80;20265;-79
2021/11/18 07:52:08;;;;;;;;;;;;;;;6.70;100.00;100626.95;1764479;80;21164;-79
2021/11/18 07:54:33;;;;;;;;;;;;;;;6.74;100.00;100621.84;1758864;79;20184;-77
2021/11/18 07:56:59;;;;;;;;;;;;;;;6.71;100.00;100626.02;1766514;80;20453;-77
2021/11/18 07:59:26;;;;;;;;;;;;;;;6.68;100.00;100636.75;1761415;80;20187;-77
2021/11/18 08:01:51;;;;;;;;;;;;;;;6.70;100.00;100634.83;1756808;80;20225;-76
2021/11/18 08:04:17;;;;;;;;;;;;;;;6.71;100.00;100636.97;1761323;80;21108;-76
2021/11/18 08:06:43;;;;;;;;;;;;;;;6.79;100.00;100631.49;1758244;80;20294;-76
2021/11/18 08:09:12;;;;;;;;;;;;;;;6.78;100.00;100627.19;1766341;80;20138;-76
2021/11/18 08:11:47;;;;;;;;;;;;;;;6.75;100.00;100637.09;1758287;80;20412;-79
2021/11/18 08:14:14;;;;;;;;;;;;;;;6.72;100.00;100636.84;1761477;80;20338;-76
2021/11/18 08:16:40;;;;;;;;;;;;;;;6.72;100.00;100642.09;1765607;79;21221;-77
2021/11/18 08:19:06;;;;;;;;;;;;;;;6.71;100.00;100643.07;1759926;81;20670;-77
2021/11/18 08:21:32;;;;;;;;;;;;;;;6.77;100.00;100649.12;1760045;81;20129;-77
2021/11/18 08:23:58;;;;;;;;;;;;;;;6.80;100.00;100654.14;1757779;80;20169;-78
2021/11/18 08:26:25;;;;;;;;;;;;;;;6.81;100.00;100667.63;1718931;82;20206;-78
2021/11/18 08:28:51;;;;;;;;;;;;;;;6.80;100.00;100664.64;1733541;82;21144;-78
2021/11/18 08:31:17;;;;;;;;;;;;;;;6.81;100.00;100661.07;1739556;81;20167;-77
2021/11/18 08:33:42;;;;;;;;;;;;;;;6.87;100.00;100658.91;1759354;80;20865;-78
2021/11/18 08:36:08;;;;;;;;;;;;;;;6.90;100.00;100671.34;1764220;79;20116;-76
2021/11/18 08:38:33;;;;;;;;;;;;;;;6.90;100.00;100675.73;1762682;81;20195;-77
2021/11/18 08:41:02;;;;;;;;;;;;;;;6.95;100.00;100659.17;1755339;80;20654;-78
2021/11/18 08:43:29;;;;;;;;;;;;;;;6.94;100.00;100692.94;1757729;80;20188;-79
2021/11/18 08:45:54;;;;;;;;;;;;;;;6.92;100.00;100665.97;1723775;81;20515;-78
2021/11/18 08:48:20;;;;;;;;;;;;;;;6.81;100.00;100676.82;1759837;81;20106;-77
2021/11/18 08:50:47;;;;;;;;;;;;;;;6.93;100.00;100689.48;1759917;80;20181;-77
2021/11/18 08:53:12;;;;;;;;;;;;;;;7.04;100.00;100674.20;1728586;82;21145;-80
2021/11/18 08:55:38;;;;;;;;;;;;;;;7.12;100.00;100680.17;1760629;80;20172;-76
2021/11/18 08:58:05;;;;;;;;;;;;;;;7.07;100.00;100690.18;1725400;81;20131;-78
2021/11/18 09:00:37;;;;;;;;;;;;;;;7.06;100.00;100690.67;1759353;80;20193;-77
2021/11/18 09:03:03;;;;;;;;;;;;;;;7.13;100.00;100678.73;1758768;80;20221;-77
2021/11/18 09:05:30;;;;;;;;;;;;;;;7.15;100.00;100682.06;1729614;81;21129;-78
2021/11/18 09:07:56;;;;;;;;;;;;;;;7.20;100.00;100684.33;1756674;80;20167;-77
2021/11/18 09:10:21;;;;;;;;;;;;;;;7.26;100.00;100676.45;1759035;81;20287;-77
2021/11/18 09:12:47;;;;;;;;;;;;;;;7.35;100.00;100676.55;1760221;80;20168;-77
2021/11/18 09:15:14;;;;;;;;;;;;;;;7.31;100.00;100696.62;1759991;80;20337;-78
2021/11/18 09:17:40;;;;;;;;;;;;;;;7.31;100.00;100678.23;1758990;80;21154;-76
2021/11/18 09:20:08;;;;;;;;;;;;;;;7.28;99.07;100674.53;1751876;80;20789;-75
2021/11/18 09:22:34;;;;;;;;;;;;;;;7.26;98.95;100680.40;1766423;80;20127;-77
2021/11/18 09:25:00;;;;;;;;;;;;;;;7.38;99.25;100684.68;1756507;80;20132;-78
2021/11/18 09:27:29;;;;;;;;;;;;;;;7.22;99.16;100673.70;1747048;80;20522;-78
2021/11/18 09:29:56;;;;;;;;;;;;;;;7.41;99.03;100676.55;1751749;80;21110;-78
2021/11/18 09:32:22;;;;;;;;;;;;;;;7.32;99.30;100682.54;1752848;80;20175;-77
2021/11/18 09:34:48;;;;;;;;;;;;;;;7.32;98.83;100683.36;1753962;80;20157;-78
2021/11/18 09:37:14;;;;;;;;;;;;;;;7.15;98.69;100686.50;1748076;80;20477;-79
2021/11/18 09:39:40;;;;;;;;;;;;;;;7.29;98.55;100690.66;1723533;80;20173;-79
2021/11/18 09:42:12;;;;;;;;;;;;;;;7.32;98.33;100679.91;1747866;80;21929;-79
2021/11/18 09:44:57;;;;;;;;;;;;;;;7.34;98.50;100684.55;1741997;80;20258;-78
2021/11/18 09:48:00;;;;;;;;;;;;;;;7.41;98.18;100689.69;1748585;80;20177;-78
2021/11/18 09:50:47;;;;;;;;;;;;;;;7.35;98.29;100690.18;1750125;80;20144;-78
2021/11/18 09:53:34;;;;;;;;;;;;;;;7.37;97.65;100673.31;1747117;80;20179;-78
2021/11/18 09:56:10;;;;;;;;;;;;;;;7.38;97.89;100668.91;1742703;80;21196;-76
2021/11/18 09:58:39;;;;;;;;;;;;;;;7.44;97.43;100678.94;1749175;80;20205;-76
2021/11/18 10:01:31;;;;;;;;;;;;;;;7.48;97.39;100665.89;1744813;80;20188;-77
2021/11/18 10:04:20;;;;;;;;;;;;;;;7.37;97.67;100687.77;1748581;80;20202;-77
2021/11/18 10:06:46;;;;;;;;;;;;;;;7.38;97.33;100675.48;1747717;80;20241;-76
2021/11/18 10:09:18;;;;;;;;;;;;;;;7.49;97.31;100654.42;1739095;81;21080;-78
2021/11/18 10:12:06;;;;;;;;;;;;;;;7.54;97.27;100658.82;1734000;81;38889;-76
2021/11/18 10:14:38;;;;;;;;;;;;;;;7.47;96.61;100681.31;1736433;81;20398;-78
2021/11/18 10:17:11;;;;;;;;;;;;;;;7.47;97.15;100706.28;1738649;81;20125;-76
2021/11/18 10:19:41;;;;;;;;;;;;;;;7.48;97.14;100671.63;1761935;80;20176;-77
2021/11/18 10:22:10;;;;;;;;;;;;;;;7.46;96.87;100673.07;1757908;80;21086;-78
2021/11/18 10:24:38;;;;;;;;;;;;;;;7.50;96.57;100681.07;1777715;80;20582;-77
2021/11/18 10:27:10;;;;;;;;;;;;;;;7.58;95.99;100676.97;1758795;80;20635;-76
2021/11/18 10:29:54;;;;;;;;;;;;;;;7.62;95.26;100660.83;1744396;80;20946;-77
2021/11/18 10:32:22;;;;;;;;;;;;;;;7.59;95.26;100673.39;1734865;81;20182;-77
2021/11/18 10:34:58;;;;;;;;;;;;;;;7.70;94.88;100653.15;1733366;81;21815;-77
2021/11/18 10:37:27;;;;;;;;;;;;;;;7.61;94.29;100660.47;1736207;81;20232;-78
2021/11/18 10:39:59;;;;;;;;;;;;;;;7.69;93.90;100680.41;1735386;81;20208;-76
2021/11/18 10:42:29;;;;;;;;;;;;;;;7.67;93.36;100670.48;1729989;81;20145;-77
2021/11/18 10:45:13;;;;;;;;;;;;;;;7.71;93.13;100664.52;1742648;81;20146;-77
2021/11/18 10:47:54;;;;;;;;;;;;;;;7.77;92.89;100667.96;1724201;80;21164;-78
2021/11/18 10:50:32;;;;;;;;;;;;;;;7.74;92.59;100669.53;1738315;80;20150;-77
2021/11/18 10:53:16;;;;;;;;;;;;;;;7.70;92.60;100662.84;1736775;81;20091;-77
2021/11/18 10:55:48;;;;;;;;;;;;;;;7.74;92.61;100664.27;1731157;81;20114;-75
2021/11/18 10:58:27;;;;;;;;;;;;;;;7.75;92.22;100661.97;1736005;81;20158;-76
2021/11/18 11:01:01;;;;;;;;;;;;;;;7.81;91.11;100670.67;1740333;81;22009;-76
2021/11/18 11:03:35;;;;;;;;;;;;;;;7.82;91.49;100661.84;1745250;81;20162;-77
2021/11/18 11:06:20;;;;;;;;;;;;;;;7.77;91.57;100651.33;1737070;81;20119;-76
2021/11/18 11:09:11;;;;;;;;;;;;;;;7.83;91.41;100660.03;1731206;81;20236;-76
2021/11/18 11:11:46;;;;;;;;;;;;;;;7.79;90.99;100662.09;1734581;81;20626;-75
2021/11/18 11:14:21;;;;;;;;;;;;;;;7.77;90.91;100673.22;1759419;80;21055;-76
2021/11/18 11:17:16;;;;;;;;;;;;;;;7.81;89.92;100665.42;1756569;80;20197;-76
2021/11/18 11:19:48;;;;;;;;;;;;;;;7.80;90.10;100670.34;1727289;81;20200;-76
2021/11/18 11:22:21;;;;;;;;;;;;;;;7.83;89.55;100660.89;1715427;82;20160;-76
2021/11/18 11:25:08;;;;;;;;;;;;;;;7.83;89.09;100679.30;1711447;82;20200;-76
2021/11/18 11:27:54;;;;;;;;;;;;;;;7.88;89.37;100653.45;1705271;83;21100;-76
2021/11/18 11:30:35;;;;;;;;;;;;;;;7.84;89.19;100645.45;1747023;81;20137;-76
2021/11/18 11:33:29;;;;;;;;;;;;;;;7.94;87.52;100655.21;1715437;82;20136;-76
2021/11/18 11:36:10;;;;;;;;;;;;;;;8.09;86.53;100673.67;1711641;83;20285;-76
2021/11/18 11:38:43;;;;;;;;;;;;;;;7.97;85.32;100667.65;1715090;83;20184;-77
2021/11/18 11:41:25;;;;;;;;;;;;;;;7.95;85.24;100660.83;1712966;83;21064;-76
2021/11/18 11:44:12;;;;;;;;;;;;;;;7.93;85.35;100665.39;1714742;83;20174;-78
2021/11/18 11:46:47;;;;;;;;;;;;;;;7.96;84.99;100662.52;1713826;81;20164;-76
2021/11/18 11:49:34;;;;;;;;;;;;;;;7.94;84.46;100665.73;1712082;81;20162;-77
2021/11/18 11:52:27;;;;;;;;;;;;;;;7.84;83.80;100662.54;1710045;81;20142;-78
2021/11/18 11:55:13;;;;;;;;;;;;;;;8.00;83.59;100656.02;1710999;81;21336;-77
2021/11/18 11:57:57;;;;;;;;;;;;;;;8.03;81.38;100650.05;1715506;81;20252;-77
2021/11/18 12:00:32;;;;;;;;;;;;;;;8.00;81.21;100654.70;1715813;82;20113;-79
2021/11/18 12:03:24;;;;;;;;;;;;;;;7.98;81.37;100655.32;1731804;81;20151;-78
2021/11/18 12:06:00;;;;;;;;;;;;;;;7.88;81.44;100665.28;1725758;81;20487;-77
2021/11/18 12:08:34;;;;;;;;;;;;;;;7.94;81.47;100656.52;1723834;82;21259;-77
2021/11/18 12:11:13;;;;;;;;;;;;;;;7.91;81.67;100683.44;1724932;81;20180;-77
2021/11/18 12:13:48;;;;;;;;;;;;;;;7.94;81.86;100668.36;1728296;82;20568;-78
2021/11/18 12:16:17;;;;;;;;;;;;;;;7.98;81.99;100650.06;1724207;82;20175;-77
2021/11/18 12:18:47;;;;;;;;;;;;;;;7.86;82.51;100650.13;1751817;79;20260;-77
2021/11/18 12:21:12;;;;;;;;;;;;;;;7.87;82.98;100659.66;1767790;80;21038;-79
2021/11/18 12:24:09;;;;;;;;;;;;;;;7.73;84.04;100645.50;1768107;80;20718;-76
2021/11/18 12:26:56;;;;;;;;;;;;;;;7.83;84.18;100637.69;1769030;80;20164;-78
2021/11/18 12:29:43;;;;;;;;;;;;;;;7.72;83.95;100631.99;1774445;80;20930;-75
2021/11/18 12:32:12;;;;;;;;;;;;;;;7.71;84.45;100639.55;1764408;80;20145;-76
2021/11/18 12:35:00;;;;;;;;;;;;;;;7.73;84.91;100636.30;1771335;80;21160;-77
2021/11/18 12:37:32;;;;;;;;;;;;;;;7.71;85.20;100626.40;1756544;80;20292;-76
2021/11/18 12:40:20;;;;;;;;;;;;;;;7.78;84.89;100636.75;1765301;80;20170;-77
2021/11/18 12:43:16;;;;;;;;;;;;;;;7.85;84.89;100624.78;1763046;79;20393;-77
2021/11/18 12:45:46;;;;;;;;;;;;;;;7.82;85.06;100626.34;1757280;80;20451;-77
2021/11/18 12:48:18;;;;;;;;;;;;;;;7.85;85.12;100610.31;1756931;80;21094;-79
2021/11/18 12:51:05;;;;;;;;;;;;;;;7.89;84.85;100618.77;1758991;79;20184;-78